Canefield Airport

Partly cloudy with adjacent showers
30oC (86oF)

Partly cloudy with adjacent showers


Winds: West north westerly @ 03kts / 06km/h

Humidity: 72%

Barometric Pressure: 1014 mb

Accumulated Rainfall for May: 3.1 mm

Updated: 13:00 local time (17:00 UTC)

Douglas-Charles Airport

Overcast and breezy with  showers
26oC (79oF)

Overcast and breezy with showers


Winds: East south easterly @ 12kts / 22km/h

Humidity: 93%

Barometric Pressure: 1016 mb

Accumulated Rainfall for May: 11.2 mm

Updated: 13:00 local time (17:00 UTC)

Satellite Imagery

Satellite Imagery
Click image for larger view. (Source: National Hurricane Center).

Aviation Routine Report (METAR)

Douglas-Charles: METAR TDPD 141700Z 11012KT 9999 4000W SHRA BKN010 OVC036 26/25 Q1016=
Canefield: METAR TDCF 141700Z 30003KT 9999 SCT020 30/24 Q1014=